createdAt,value
2022-10-28T00:01:15.514Z,22.77
2022-10-28T00:03:52.954Z,23.60
2022-10-28T00:06:24.099Z,24.03
2022-10-28T00:08:52.488Z,26.53
2022-10-28T00:11:23.339Z,26.80
2022-10-28T00:13:53.663Z,28.50
2022-10-28T00:16:23.223Z,29.33
2022-10-28T00:18:53.829Z,28.60
2022-10-28T00:21:25.297Z,22.17
2022-10-28T00:23:53.856Z,24.83
2022-10-28T00:26:23.942Z,22.33
2022-10-28T00:28:53.963Z,26.97
2022-10-28T00:31:23.851Z,21.50
2022-10-28T00:33:52.077Z,22.27
2022-10-28T00:36:24.309Z,23.73
2022-10-28T00:38:54.654Z,23.33
2022-10-28T00:41:24.423Z,23.50
2022-10-28T00:43:54.580Z,23.83
2022-10-28T00:46:29.706Z,21.67
2022-10-28T00:49:04.028Z,21.33
2022-10-28T00:51:36.281Z,20.20
2022-10-28T00:54:06.583Z,24.47
2022-10-28T00:56:38.828Z,21.00
2022-10-28T00:59:12.531Z,18.47
2022-10-28T01:01:41.207Z,16.10
2022-10-28T01:04:10.030Z,15.20
2022-10-28T01:06:40.246Z,16.50
2022-10-28T01:09:09.003Z,18.07
2022-10-28T01:11:55.909Z,19.07
2022-10-28T01:14:37.623Z,16.30
2022-10-28T01:17:31.754Z,14.33
2022-10-28T01:20:42.394Z,13.27
2022-10-28T01:23:22.691Z,13.47
2022-10-28T01:26:16.838Z,14.10
2022-10-28T01:29:20.504Z,13.20
2022-10-28T01:31:52.735Z,12.00
2022-10-28T01:34:28.539Z,13.63
2022-10-28T01:37:02.333Z,12.47
2022-10-28T01:39:36.343Z,12.77
2022-10-28T01:42:15.453Z,14.67
2022-10-28T01:44:49.548Z,11.70
2022-10-28T01:47:24.276Z,14.07
2022-10-28T01:49:57.441Z,13.50
2022-10-28T01:52:28.462Z,11.93
2022-10-28T01:55:11.627Z,12.77
2022-10-28T01:57:41.941Z,11.40
2022-10-28T02:00:15.295Z,11.33
2022-10-28T02:02:47.687Z,11.83
2022-10-28T02:05:39.352Z,13.23
2022-10-28T02:08:28.075Z,13.13
2022-10-28T02:11:07.613Z,12.40
2022-10-28T02:13:45.013Z,11.33
2022-10-28T02:16:24.570Z,12.30
2022-10-28T02:19:03.647Z,13.23
2022-10-28T02:21:41.664Z,11.47
2022-10-28T02:24:16.977Z,10.47
2022-10-28T02:26:52.528Z,10.30
2022-10-28T02:29:29.886Z,11.23
2022-10-28T02:32:03.477Z,12.70
2022-10-28T02:34:38.352Z,11.87
2022-10-28T02:37:13.198Z,11.40
2022-10-28T02:39:45.746Z,10.57
2022-10-28T02:42:18.855Z,10.20
2022-10-28T02:44:52.504Z,11.90
2022-10-28T02:47:24.575Z,10.87
2022-10-28T02:50:00.348Z,12.73
2022-10-28T02:52:32.522Z,10.43
2022-10-28T02:55:04.831Z,11.90
2022-10-28T02:57:36.439Z,12.33
2022-10-28T03:00:08.574Z,12.37
2022-10-28T03:02:37.192Z,10.63
2022-10-28T03:05:08.045Z,10.60
2022-10-28T03:07:36.011Z,12.37
2022-10-28T03:10:04.428Z,12.17
2022-10-28T03:12:32.443Z,10.10
2022-10-28T03:15:01.952Z,11.10
2022-10-28T03:17:30.321Z,9.77
2022-10-28T03:19:58.363Z,9.30
2022-10-28T03:22:27.632Z,9.90
2022-10-28T03:24:55.971Z,11.00
2022-10-28T03:27:24.675Z,12.57
2022-10-28T03:29:52.955Z,10.40
2022-10-28T03:34:50.172Z,12.97
2022-10-28T03:37:18.201Z,13.00
2022-10-28T03:39:47.770Z,13.83
2022-10-28T03:42:15.826Z,10.63
2022-10-28T03:44:43.795Z,9.50
2022-10-28T03:47:11.831Z,13.43
2022-10-28T03:49:39.898Z,12.33
2022-10-28T03:52:07.865Z,11.77
2022-10-28T03:54:35.789Z,13.03
2022-10-28T03:57:05.121Z,10.70
2022-10-28T03:59:33.279Z,12.30
2022-10-28T04:02:01.850Z,13.63
2022-10-28T04:04:30.895Z,14.50
2022-10-28T04:06:58.987Z,11.57
2022-10-28T04:09:27.510Z,10.97
2022-10-28T04:11:55.536Z,12.10
2022-10-28T04:14:27.002Z,14.03
2022-10-28T04:16:55.072Z,12.83
2022-10-28T04:19:23.213Z,11.40
2022-10-28T04:21:55.286Z,11.37
2022-10-28T04:24:26.736Z,11.80
2022-10-28T04:26:58.186Z,11.17
2022-10-28T04:29:27.815Z,50.43
2022-10-28T04:31:58.680Z,26.33
2022-10-28T04:34:26.742Z,16.20
2022-10-28T04:36:56.994Z,13.63
2022-10-28T04:39:25.368Z,15.20
2022-10-28T04:41:53.302Z,11.77
2022-10-28T04:44:21.290Z,11.37
2022-10-28T04:46:50.575Z,11.23
2022-10-28T04:49:18.686Z,11.93
2022-10-28T04:54:14.794Z,11.90
2022-10-28T04:56:42.880Z,11.23
2022-10-28T04:59:10.880Z,10.30
2022-10-28T05:01:39.234Z,9.93
2022-10-28T05:04:09.807Z,9.10
2022-10-28T05:06:38.785Z,10.60
2022-10-28T05:09:06.811Z,9.83
2022-10-28T05:11:34.822Z,11.57
2022-10-28T05:14:02.803Z,16.90
2022-10-28T05:16:30.975Z,11.10
2022-10-28T05:18:59.342Z,10.77
2022-10-28T05:21:28.846Z,10.93
2022-10-28T05:23:57.134Z,11.03
2022-10-28T05:26:25.400Z,13.03
2022-10-28T05:28:53.392Z,12.70
2022-10-28T05:31:21.595Z,11.40
2022-10-28T05:33:49.546Z,11.63
2022-10-28T05:36:17.487Z,10.60
2022-10-28T05:38:47.039Z,12.17
2022-10-28T05:41:14.955Z,11.53
2022-10-28T05:43:43.405Z,13.17
2022-10-28T05:46:11.658Z,13.20
2022-10-28T05:48:39.648Z,10.67
2022-10-28T05:51:07.700Z,12.97
2022-10-28T05:53:41.875Z,10.87
2022-10-28T05:56:11.605Z,9.93
2022-10-28T05:58:40.087Z,10.17
2022-10-28T06:01:08.893Z,11.77
2022-10-28T06:03:37.204Z,9.27
2022-10-28T06:06:05.380Z,9.27
2022-10-28T06:08:33.605Z,10.67
2022-10-28T06:11:00.916Z,8.40
2022-10-28T06:13:30.452Z,9.67
2022-10-28T06:15:58.423Z,10.47
2022-10-28T06:18:29.654Z,9.00
2022-10-28T06:20:58.657Z,9.13
2022-10-28T06:23:28.120Z,9.93
2022-10-28T06:28:26.425Z,8.50
2022-10-28T06:31:01.641Z,11.63
2022-10-28T06:33:29.913Z,8.37
2022-10-28T06:35:58.902Z,10.67
2022-10-28T06:38:27.789Z,10.17
2022-10-28T06:41:00.519Z,9.00
2022-10-28T06:43:28.488Z,9.80
2022-10-28T06:46:00.846Z,10.13
2022-10-28T06:48:30.933Z,11.33
2022-10-28T06:50:59.153Z,41.90
2022-10-28T06:53:27.525Z,12.53
2022-10-28T06:55:56.254Z,19.60
2022-10-28T06:58:24.932Z,10.03
2022-10-28T07:00:53.769Z,10.53
2022-10-28T07:03:23.904Z,9.57
2022-10-28T07:05:51.877Z,10.30
2022-10-28T07:08:19.983Z,12.50
2022-10-28T07:10:57.304Z,11.10
2022-10-28T07:13:26.142Z,10.63
2022-10-28T07:15:54.724Z,10.00
2022-10-28T07:18:25.213Z,23.10
2022-10-28T07:20:53.357Z,12.10
2022-10-28T07:23:22.365Z,9.87
2022-10-28T07:28:28.611Z,10.50
2022-10-28T07:31:02.518Z,10.70
2022-10-28T07:33:32.331Z,10.90
2022-10-28T07:36:00.570Z,10.83
2022-10-28T07:38:28.658Z,9.60
2022-10-28T07:40:56.912Z,11.60
2022-10-28T07:43:24.885Z,10.73
2022-10-28T07:45:57.813Z,13.07
2022-10-28T07:48:25.960Z,19.77
2022-10-28T07:50:55.606Z,10.33
2022-10-28T07:53:26.189Z,9.20
2022-10-28T07:55:58.096Z,6.93
2022-10-28T07:58:26.362Z,9.57
2022-10-28T08:00:54.692Z,7.97
2022-10-28T08:03:31.181Z,9.00
2022-10-28T08:06:09.226Z,8.47
2022-10-28T08:08:37.879Z,7.07
2022-10-28T08:11:12.862Z,8.50
2022-10-28T08:13:41.045Z,7.00
2022-10-28T08:16:09.786Z,6.57
2022-10-28T08:18:38.710Z,6.47
2022-10-28T08:21:10.354Z,9.47
2022-10-28T08:23:39.372Z,9.10
2022-10-28T08:26:08.049Z,8.03
2022-10-28T08:28:37.258Z,7.77
2022-10-28T08:31:09.407Z,7.40
2022-10-28T08:33:37.998Z,8.00
2022-10-28T08:36:09.161Z,7.93
2022-10-28T08:38:40.513Z,7.10
2022-10-28T08:41:24.036Z,8.43
2022-10-28T08:44:11.733Z,6.80
2022-10-28T08:46:53.533Z,6.90
2022-10-28T08:49:24.678Z,6.00
2022-10-28T08:51:58.113Z,5.83
2022-10-28T08:54:32.341Z,6.67
2022-10-28T08:57:02.400Z,5.40
2022-10-28T08:59:33.805Z,7.50
2022-10-28T09:02:06.663Z,10.50
2022-10-28T09:04:39.948Z,6.03
2022-10-28T09:07:14.848Z,6.50
2022-10-28T09:09:42.828Z,6.83
2022-10-28T09:12:25.492Z,6.10
2022-10-28T09:15:13.872Z,6.20
2022-10-28T09:17:52.808Z,6.73
2022-10-28T09:20:27.099Z,9.53
2022-10-28T09:22:59.760Z,11.10
2022-10-28T09:25:37.698Z,8.20
2022-10-28T09:28:20.983Z,8.60
2022-10-28T09:30:56.853Z,9.10
2022-10-28T09:33:45.233Z,8.90
2022-10-28T09:36:18.143Z,8.53
2022-10-28T09:38:48.267Z,9.50
2022-10-28T09:41:20.503Z,10.43
2022-10-28T09:43:51.992Z,11.30
2022-10-28T09:46:22.036Z,8.87
2022-10-28T09:48:52.894Z,10.80
2022-10-28T09:51:29.905Z,9.77
2022-10-28T09:54:00.553Z,12.30
2022-10-28T09:56:30.620Z,9.70
2022-10-28T09:59:00.884Z,9.43
2022-10-28T10:01:32.287Z,9.40
2022-10-28T10:04:00.609Z,11.73
2022-10-28T10:06:33.521Z,10.30
2022-10-28T10:09:03.454Z,10.23
2022-10-28T10:11:37.288Z,9.50
2022-10-28T10:14:08.667Z,9.93
2022-10-28T10:16:42.359Z,11.60
2022-10-28T10:19:12.122Z,9.77
2022-10-28T10:21:46.247Z,13.60
2022-10-28T10:24:27.450Z,9.20
2022-10-28T10:26:55.845Z,11.33
2022-10-28T10:29:24.373Z,9.47
2022-10-28T10:32:06.539Z,18.97
2022-10-28T10:34:35.019Z,10.50
2022-10-28T10:37:05.042Z,10.00
2022-10-28T10:39:38.846Z,12.23
2022-10-28T10:42:17.561Z,8.93
2022-10-28T10:44:46.194Z,9.83
2022-10-28T10:47:23.043Z,9.70
2022-10-28T10:49:52.006Z,11.33
2022-10-28T10:52:24.268Z,11.33
2022-10-28T10:55:05.501Z,10.63
2022-10-28T10:57:34.513Z,11.20
2022-10-28T11:00:02.692Z,17.27
2022-10-28T11:02:35.560Z,12.10
2022-10-28T11:05:07.642Z,12.17
2022-10-28T11:07:37.139Z,12.00
2022-10-28T11:10:08.091Z,15.60
2022-10-28T11:12:37.406Z,8.37
2022-10-28T11:15:21.464Z,9.53
2022-10-28T11:17:59.133Z,9.63
2022-10-28T11:20:31.390Z,8.70
2022-10-28T11:23:14.230Z,9.40
2022-10-28T11:25:46.826Z,9.97
2022-10-28T11:28:34.888Z,10.97
2022-10-28T11:31:16.155Z,9.97
2022-10-28T11:33:51.421Z,11.20
2022-10-28T11:36:24.963Z,9.27
2022-10-28T11:39:24.013Z,10.60
2022-10-28T11:42:13.508Z,10.50
2022-10-28T11:44:53.900Z,9.80
2022-10-28T11:47:36.695Z,10.17
2022-10-28T11:50:39.752Z,9.10
2022-10-28T11:53:42.361Z,9.97
2022-10-28T11:56:22.813Z,10.40
2022-10-28T11:59:05.401Z,9.80
2022-10-28T12:01:45.831Z,9.63
2022-10-28T12:04:33.999Z,11.50
2022-10-28T12:07:35.972Z,10.00
2022-10-28T12:10:29.594Z,9.30
2022-10-28T12:13:11.199Z,9.57
2022-10-28T12:15:50.997Z,9.83
2022-10-28T12:18:24.281Z,10.87
2022-10-28T12:20:58.786Z,9.30
2022-10-28T12:23:28.720Z,8.90
2022-10-28T12:25:59.192Z,9.00
2022-10-28T12:28:34.720Z,8.07
2022-10-28T12:31:05.165Z,9.53
2022-10-28T12:33:40.581Z,11.43
2022-10-28T12:36:20.896Z,9.30
2022-10-28T12:38:56.959Z,15.30
2022-10-28T12:41:27.784Z,14.80
2022-10-28T12:44:01.999Z,10.60
2022-10-28T12:49:24.873Z,7.43
2022-10-28T12:51:54.022Z,8.37
2022-10-28T12:54:28.759Z,8.20
2022-10-28T12:57:04.514Z,9.73
2022-10-28T12:59:38.109Z,8.80
2022-10-28T13:02:17.197Z,7.93
2022-10-28T13:04:46.405Z,9.17
2022-10-28T13:07:29.754Z,9.07
2022-10-28T13:10:12.179Z,9.73
2022-10-28T13:13:05.241Z,8.40
2022-10-28T13:15:59.041Z,9.33
2022-10-28T13:19:06.350Z,9.27
2022-10-28T13:21:50.282Z,9.50
2022-10-28T13:24:25.361Z,9.77
2022-10-28T13:26:53.627Z,8.37
2022-10-28T13:29:24.801Z,10.57
2022-10-28T13:31:54.756Z,9.37
2022-10-28T13:34:32.881Z,9.37
2022-10-28T13:37:03.758Z,9.80
2022-10-28T13:39:44.645Z,8.43
2022-10-28T13:42:33.266Z,9.00
2022-10-28T13:45:02.319Z,13.70
2022-10-28T13:47:32.380Z,11.60
2022-10-28T13:50:40.134Z,9.20
2022-10-28T13:53:42.989Z,9.10
2022-10-28T13:56:23.227Z,9.70
2022-10-28T13:58:54.333Z,9.50
2022-10-28T14:02:01.874Z,9.20
2022-10-28T14:04:40.866Z,10.90
2022-10-28T14:07:22.617Z,9.87
2022-10-28T14:09:54.852Z,10.53
2022-10-28T14:12:26.848Z,10.40
2022-10-28T14:15:00.026Z,10.27
2022-10-28T14:17:35.456Z,10.77
2022-10-28T14:20:06.855Z,23.10
2022-10-28T14:22:38.032Z,17.90
2022-10-28T14:25:50.368Z,17.07
2022-10-28T14:28:53.469Z,19.10
2022-10-28T14:31:41.153Z,17.87
2022-10-28T14:34:44.667Z,16.10
2022-10-28T14:37:48.894Z,11.70
2022-10-28T14:40:33.522Z,10.90
2022-10-28T14:43:18.952Z,11.03
2022-10-28T14:45:58.778Z,11.10
2022-10-28T14:48:48.356Z,12.83
2022-10-28T14:51:18.831Z,18.00
2022-10-28T14:53:51.597Z,13.00
2022-10-28T14:58:59.971Z,11.50
2022-10-28T15:01:37.597Z,13.77
2022-10-28T15:04:13.282Z,13.03
2022-10-28T15:06:44.409Z,13.70
2022-10-28T15:09:21.971Z,12.43
2022-10-28T15:11:55.718Z,17.07
2022-10-28T15:14:33.614Z,13.93
2022-10-28T15:17:13.615Z,13.80
2022-10-28T15:19:44.183Z,12.30
2022-10-28T15:22:16.562Z,11.90
2022-10-28T15:24:57.539Z,11.80
2022-10-28T15:27:28.061Z,14.30
2022-10-28T15:29:56.689Z,14.47
2022-10-28T15:32:30.494Z,12.77
2022-10-28T15:34:59.094Z,15.07
2022-10-28T15:37:29.437Z,12.83
2022-10-28T15:40:24.571Z,14.37
2022-10-28T15:42:58.014Z,14.10
2022-10-28T15:45:28.179Z,15.27
2022-10-28T15:47:57.934Z,13.80
2022-10-28T15:50:31.766Z,12.57
2022-10-28T15:53:23.361Z,12.30
2022-10-28T15:56:10.589Z,20.57
2022-10-28T15:58:42.935Z,16.33
2022-10-28T16:01:28.187Z,16.13
2022-10-28T16:03:56.304Z,14.83
2022-10-28T16:06:27.904Z,11.37
2022-10-28T16:09:08.403Z,11.20
2022-10-28T16:11:43.300Z,12.83
2022-10-28T16:14:31.506Z,11.37
2022-10-28T16:19:41.994Z,22.90
2022-10-28T16:22:13.752Z,10.93
2022-10-28T16:24:42.245Z,12.90
2022-10-28T16:27:17.673Z,17.40
2022-10-28T16:29:45.668Z,25.03
2022-10-28T16:32:15.240Z,17.97
2022-10-28T16:34:43.229Z,29.30
2022-10-28T16:37:21.188Z,27.20
2022-10-28T16:39:49.607Z,19.80
2022-10-28T16:42:20.342Z,40.63
2022-10-28T16:44:48.348Z,27.40
2022-10-28T16:47:18.058Z,22.77
2022-10-28T16:49:52.384Z,14.63
2022-10-28T16:52:25.940Z,19.17
2022-10-28T16:54:54.060Z,13.60
2022-10-28T16:59:56.901Z,19.40
2022-10-28T17:02:28.900Z,17.83
2022-10-28T17:04:57.974Z,17.90
2022-10-28T17:07:26.264Z,20.70
2022-10-28T17:09:54.888Z,22.30
2022-10-28T17:12:26.840Z,22.07
2022-10-28T17:14:55.257Z,30.50
2022-10-28T17:17:23.621Z,27.37
2022-10-28T17:19:51.558Z,24.30
2022-10-28T17:22:19.597Z,18.27
2022-10-28T17:24:47.836Z,27.23
2022-10-28T17:27:16.249Z,39.83
2022-10-28T17:29:46.294Z,20.70
2022-10-28T17:32:15.286Z,18.30
2022-10-28T17:34:43.556Z,15.57
2022-10-28T17:37:11.925Z,20.23
2022-10-28T17:39:40.058Z,15.70
2022-10-28T17:42:08.429Z,22.80
2022-10-28T17:44:37.262Z,16.27
2022-10-28T17:47:07.016Z,14.50
2022-10-28T17:49:36.449Z,16.50
2022-10-28T17:52:04.592Z,16.73
2022-10-28T17:54:32.727Z,16.60
2022-10-28T17:57:00.850Z,16.70
2022-10-28T17:59:29.414Z,17.40
2022-10-28T18:01:58.143Z,21.30
2022-10-28T18:04:28.809Z,16.80
2022-10-28T18:06:58.637Z,15.60
2022-10-28T18:09:28.182Z,20.97
2022-10-28T18:11:56.376Z,24.07
2022-10-28T18:14:24.822Z,18.50
2022-10-28T18:16:52.831Z,16.57
2022-10-28T18:19:21.065Z,14.87
2022-10-28T18:21:51.862Z,14.50
2022-10-28T18:24:23.330Z,19.83
2022-10-28T18:26:55.790Z,12.93
2022-10-28T18:29:23.837Z,17.50
2022-10-28T18:31:52.204Z,16.23
2022-10-28T18:34:21.216Z,15.37
2022-10-28T18:36:49.716Z,17.70
2022-10-28T18:39:19.621Z,11.50
2022-10-28T18:41:47.685Z,13.77
2022-10-28T18:44:19.941Z,16.97
2022-10-28T18:46:48.052Z,17.50
2022-10-28T18:49:15.988Z,16.70
2022-10-28T18:51:43.980Z,22.53
2022-10-28T18:54:12.001Z,20.73
2022-10-28T18:56:44.809Z,13.10
2022-10-28T18:59:15.818Z,18.93
2022-10-28T19:01:46.572Z,15.93
2022-10-28T19:04:15.169Z,11.30
2022-10-28T19:06:43.206Z,16.40
2022-10-28T19:09:11.156Z,15.50
2022-10-28T19:11:39.187Z,10.00
2022-10-28T19:14:09.156Z,9.13
2022-10-28T19:16:37.161Z,12.43
2022-10-28T19:19:06.441Z,14.57
2022-10-28T19:21:35.343Z,13.50
2022-10-28T19:24:05.271Z,11.03
2022-10-28T19:26:34.294Z,11.53
2022-10-28T19:29:11.918Z,13.33
2022-10-28T19:31:41.777Z,13.40
2022-10-28T19:34:10.712Z,14.80
2022-10-28T19:36:39.165Z,14.13
2022-10-28T19:39:07.541Z,10.43
2022-10-28T19:41:35.755Z,11.00
2022-10-28T19:44:05.126Z,10.70
2022-10-28T19:46:36.348Z,13.20
2022-10-28T19:49:06.230Z,16.40
2022-10-28T19:51:36.242Z,15.03
2022-10-28T19:54:06.616Z,13.30
2022-10-28T19:56:36.214Z,12.90
2022-10-28T19:59:05.708Z,10.87
2022-10-28T20:01:37.269Z,13.53
2022-10-28T20:04:06.319Z,12.60
2022-10-28T20:06:36.353Z,11.13
2022-10-28T20:09:07.832Z,13.47
2022-10-28T20:11:38.475Z,12.50
2022-10-28T20:14:09.438Z,14.00
2022-10-28T20:16:41.832Z,17.63
2022-10-28T20:19:10.092Z,11.33
2022-10-28T20:21:38.454Z,10.97
2022-10-28T20:24:07.896Z,15.00
2022-10-28T20:26:37.205Z,15.10
2022-10-28T20:29:06.626Z,12.80
2022-10-28T20:31:34.756Z,11.17
2022-10-28T20:34:05.575Z,12.10
2022-10-28T20:36:36.472Z,14.10
2022-10-28T20:39:08.023Z,11.83
2022-10-28T20:41:37.622Z,13.47
2022-10-28T20:44:06.601Z,14.80
2022-10-28T20:46:35.893Z,14.37
2022-10-28T20:49:06.242Z,14.23
2022-10-28T20:51:34.516Z,13.23
2022-10-28T20:54:03.001Z,15.17
2022-10-28T20:56:32.496Z,17.07
2022-10-28T20:59:00.986Z,17.53
2022-10-28T21:01:30.640Z,14.27
2022-10-28T21:04:00.383Z,17.20
2022-10-28T21:06:30.270Z,13.93
2022-10-28T21:08:58.756Z,16.07
2022-10-28T21:11:28.327Z,14.33
2022-10-28T21:13:58.140Z,14.17
2022-10-28T21:16:26.982Z,14.30
2022-10-28T21:18:55.358Z,15.17
2022-10-28T21:21:24.478Z,12.30
2022-10-28T21:23:54.250Z,16.50
2022-10-28T21:26:22.236Z,15.80
2022-10-28T21:28:51.751Z,16.83
2022-10-28T21:31:20.598Z,13.47
2022-10-28T21:36:19.263Z,26.43
2022-10-28T21:38:47.728Z,12.97
2022-10-28T21:41:19.313Z,12.87
2022-10-28T21:43:48.700Z,13.33
2022-10-28T21:46:17.632Z,17.03
2022-10-28T21:48:45.922Z,13.10
2022-10-28T21:51:15.849Z,10.90
2022-10-28T21:53:44.961Z,14.07
2022-10-28T21:56:18.283Z,13.60
2022-10-28T21:58:49.214Z,10.80
2022-10-28T22:01:18.969Z,12.30
2022-10-28T22:03:47.883Z,12.10
2022-10-28T22:06:16.112Z,12.67
2022-10-28T22:08:45.240Z,14.13
2022-10-28T22:11:15.238Z,13.20
2022-10-28T22:13:43.811Z,11.70
2022-10-28T22:16:15.313Z,12.70
2022-10-28T22:18:43.416Z,11.83
2022-10-28T22:21:14.017Z,12.13
2022-10-28T22:23:42.050Z,11.80
2022-10-28T22:26:12.125Z,11.60
2022-10-28T22:28:40.300Z,13.90
2022-10-28T22:31:10.241Z,14.70
2022-10-28T22:33:40.267Z,14.50
2022-10-28T22:36:10.678Z,14.83
2022-10-28T22:38:39.216Z,14.30
2022-10-28T22:41:11.825Z,13.53
2022-10-28T22:43:40.421Z,12.90
2022-10-28T22:46:08.440Z,13.97
2022-10-28T22:48:36.782Z,14.33
2022-10-28T22:51:06.794Z,15.10
2022-10-28T22:53:35.049Z,12.13
2022-10-28T22:56:03.346Z,12.23
2022-10-28T22:58:31.328Z,13.17
2022-10-28T23:01:07.000Z,14.33
2022-10-28T23:03:39.471Z,13.13
2022-10-28T23:06:10.436Z,14.17
2022-10-28T23:08:47.141Z,14.83
2022-10-28T23:11:16.759Z,14.10
2022-10-28T23:13:44.870Z,13.87
2022-10-28T23:16:14.666Z,14.97
2022-10-28T23:18:43.088Z,16.40
2022-10-28T23:21:14.545Z,14.83
2022-10-28T23:23:49.611Z,14.60
2022-10-28T23:26:21.164Z,14.13
2022-10-28T23:28:52.790Z,12.03
2022-10-28T23:31:21.615Z,12.50
2022-10-28T23:33:49.946Z,13.90
2022-10-28T23:36:19.364Z,11.17
2022-10-28T23:38:47.525Z,12.60
2022-10-28T23:41:18.696Z,12.53
2022-10-28T23:43:48.716Z,14.13
2022-10-28T23:46:17.363Z,13.07
2022-10-28T23:48:47.659Z,12.23
2022-10-28T23:51:15.906Z,13.20
2022-10-28T23:53:45.300Z,15.10
2022-10-28T23:56:13.481Z,12.53
2022-10-28T23:58:41.821Z,14.13
